createdAt,value
2023-02-28T00:02:05.323Z,0.65
2023-02-28T00:07:06.786Z,0.32
2023-02-28T00:12:11.137Z,1.10
2023-02-28T00:17:12.671Z,0.95
2023-02-28T00:22:14.147Z,1.35
2023-02-28T00:27:15.900Z,0.82
2023-02-28T00:32:17.411Z,0.45
2023-02-28T00:37:18.905Z,0.30
2023-02-28T00:42:20.633Z,0.35
2023-02-28T00:47:22.194Z,1.42
2023-02-28T00:52:23.773Z,0.55
2023-02-28T00:57:25.494Z,0.98
2023-02-28T01:02:27.013Z,0.35
2023-02-28T01:07:28.453Z,1.52
2023-02-28T01:12:31.024Z,1.10
2023-02-28T01:17:32.579Z,0.30
2023-02-28T01:22:35.426Z,0.80
2023-02-28T01:27:36.944Z,1.63
2023-02-28T01:32:38.426Z,0.95
2023-02-28T01:37:39.941Z,0.30
2023-02-28T01:42:41.382Z,0.50
2023-02-28T01:47:43.766Z,0.50
2023-02-28T01:52:46.406Z,0.30
2023-02-28T01:57:50.039Z,0.38
2023-02-28T02:02:52.937Z,0.75
2023-02-28T02:07:58.321Z,0.40
2023-02-28T02:12:59.748Z,0.95
2023-02-28T02:18:21.449Z,0.15
2023-02-28T02:23:32.089Z,0.52
2023-02-28T02:28:36.337Z,1.05
2023-02-28T02:33:52.171Z,1.08
2023-02-28T02:38:56.479Z,0.30
2023-02-28T02:44:02.922Z,0.40
2023-02-28T02:49:07.195Z,0.47
2023-02-28T02:54:08.605Z,0.22
2023-02-28T02:59:12.577Z,2.58
2023-02-28T03:04:17.281Z,0.20
2023-02-28T03:09:18.736Z,0.70
2023-02-28T03:14:35.202Z,0.40
2023-02-28T03:19:48.856Z,0.40
2023-02-28T03:24:50.307Z,0.30
2023-02-28T03:30:06.127Z,0.25
2023-02-28T03:35:10.954Z,0.40
2023-02-28T03:40:18.674Z,2.45
2023-02-28T03:45:25.054Z,0.20
2023-02-28T03:50:46.313Z,0.40
2023-02-28T03:55:53.722Z,0.85
2023-02-28T04:01:09.209Z,0.25
2023-02-28T04:06:15.847Z,0.45
2023-02-28T04:11:26.364Z,0.10
2023-02-28T04:16:35.329Z,0.17
2023-02-28T04:21:39.976Z,0.40
2023-02-28T04:26:45.996Z,0.30
2023-02-28T04:31:47.533Z,0.25
2023-02-28T04:37:10.061Z,0.20
2023-02-28T04:42:14.287Z,0.30
2023-02-28T04:47:15.891Z,0.10
2023-02-28T04:52:17.390Z,0.45
2023-02-28T04:57:18.881Z,1.05
2023-02-28T05:02:22.199Z,0.20
2023-02-28T05:07:23.767Z,0.17
2023-02-28T05:12:25.265Z,0.35
2023-02-28T05:17:26.699Z,0.40
2023-02-28T05:22:28.172Z,0.40
2023-02-28T05:27:29.625Z,0.22
2023-02-28T05:32:31.236Z,0.10
2023-02-28T05:37:32.727Z,0.10
2023-02-28T05:42:34.426Z,0.20
2023-02-28T05:47:36.098Z,0.20
2023-02-28T05:52:38.305Z,0.20
2023-02-28T05:57:40.176Z,0.30
2023-02-28T06:02:41.843Z,0.25
2023-02-28T06:07:44.119Z,0.28
2023-02-28T06:12:45.569Z,0.22
2023-02-28T06:17:47.653Z,0.43
2023-02-28T06:22:49.163Z,0.52
2023-02-28T06:27:50.681Z,1.17
2023-02-28T06:32:53.008Z,0.13
2023-02-28T06:37:54.523Z,0.20
2023-02-28T06:42:56.059Z,0.20
2023-02-28T06:47:57.555Z,0.50
2023-02-28T06:52:59.071Z,0.40
2023-02-28T06:58:00.699Z,0.57
2023-02-28T07:03:02.211Z,0.88
2023-02-28T07:08:04.450Z,0.80
2023-02-28T07:13:06.904Z,0.47
2023-02-28T07:18:08.384Z,0.25
2023-02-28T07:23:09.827Z,0.22
2023-02-28T07:28:11.294Z,0.32
2023-02-28T07:33:12.891Z,0.30
2023-02-28T07:38:14.977Z,1.05
2023-02-28T07:43:16.494Z,0.30
2023-02-28T07:48:17.936Z,0.22
2023-02-28T07:53:19.379Z,0.10
2023-02-28T07:58:21.024Z,0.15
2023-02-28T08:03:23.586Z,0.10
2023-02-28T08:08:25.054Z,0.43
2023-02-28T08:13:28.489Z,0.20
2023-02-28T08:18:30.035Z,0.10
2023-02-28T08:23:31.524Z,0.20
2023-02-28T08:28:33.020Z,0.63
2023-02-28T08:33:34.822Z,0.17
2023-02-28T08:38:37.111Z,0.17
2023-02-28T08:43:39.049Z,1.25
2023-02-28T08:48:40.623Z,0.10
2023-02-28T08:53:42.199Z,0.10
2023-02-28T08:58:44.869Z,0.20
2023-02-28T09:03:47.205Z,0.10
2023-02-28T09:08:48.756Z,0.00
2023-02-28T09:13:50.299Z,0.10
2023-02-28T09:18:51.782Z,0.70
2023-02-28T09:23:53.689Z,0.30
2023-02-28T09:28:55.740Z,0.30
2023-02-28T09:33:57.929Z,0.10
2023-02-28T09:38:59.503Z,0.10
2023-02-28T09:44:04.021Z,0.20
2023-02-28T09:49:07.574Z,0.50
2023-02-28T09:54:14.249Z,0.57
2023-02-28T09:59:35.473Z,0.30
2023-02-28T10:04:46.105Z,3.40
2023-02-28T10:09:50.242Z,0.90
2023-02-28T10:14:55.326Z,0.15
2023-02-28T10:19:56.794Z,2.55
2023-02-28T10:25:02.167Z,0.50
2023-02-28T10:30:04.279Z,0.40
2023-02-28T10:35:14.878Z,1.40
2023-02-28T10:40:19.152Z,0.20
2023-02-28T10:45:20.659Z,0.10
2023-02-28T10:50:28.682Z,0.30
2023-02-28T10:55:30.641Z,0.50
2023-02-28T11:00:36.279Z,0.20
2023-02-28T11:05:37.910Z,0.28
2023-02-28T11:10:39.879Z,0.45
2023-02-28T11:15:41.565Z,0.10
2023-02-28T11:20:43.170Z,0.22
2023-02-28T11:25:48.655Z,0.03
2023-02-28T11:31:01.499Z,0.10
2023-02-28T11:36:05.395Z,2.33
2023-02-28T11:41:30.239Z,0.40
2023-02-28T11:46:37.883Z,0.10
2023-02-28T11:51:45.720Z,1.00
2023-02-28T11:56:58.339Z,0.95
2023-02-28T12:01:59.960Z,1.00
2023-02-28T12:07:10.397Z,2.05
2023-02-28T12:12:21.749Z,0.20
2023-02-28T12:17:44.363Z,0.30
2023-02-28T12:23:10.766Z,0.55
2023-02-28T12:28:13.402Z,0.20
2023-02-28T12:33:15.950Z,0.30
2023-02-28T12:38:22.245Z,0.10
2023-02-28T12:43:26.473Z,0.10
2023-02-28T12:48:37.386Z,0.28
2023-02-28T12:53:51.106Z,0.20
2023-02-28T12:58:55.763Z,0.13
2023-02-28T13:04:09.990Z,0.35
2023-02-28T13:09:13.477Z,0.65
2023-02-28T13:14:28.964Z,0.20
2023-02-28T13:19:32.212Z,0.10
2023-02-28T13:24:47.694Z,0.10
2023-02-28T13:29:49.297Z,0.10
2023-02-28T13:34:50.706Z,0.10
2023-02-28T13:39:56.009Z,1.23
2023-02-28T13:45:06.575Z,0.38
2023-02-28T13:50:26.509Z,0.22
2023-02-28T13:55:47.101Z,0.63
2023-02-28T14:06:09.101Z,0.10
2023-02-28T14:11:24.421Z,0.20
2023-02-28T14:16:31.257Z,0.30
2023-02-28T14:21:35.311Z,0.43
2023-02-28T14:26:45.826Z,0.20
2023-02-28T14:32:07.560Z,0.20
2023-02-28T14:37:16.302Z,0.17
2023-02-28T14:42:31.619Z,0.95
2023-02-28T14:47:34.165Z,2.60
2023-02-28T14:52:35.744Z,1.10
2023-02-28T14:57:42.194Z,0.45
2023-02-28T15:02:44.268Z,0.73
2023-02-28T15:07:46.835Z,0.30
2023-02-28T15:13:08.602Z,1.70
2023-02-28T15:18:15.737Z,0.32
2023-02-28T15:23:17.496Z,0.20
2023-02-28T15:28:20.879Z,0.30
2023-02-28T15:33:23.942Z,0.32
2023-02-28T15:38:27.293Z,0.35
2023-02-28T15:43:33.027Z,0.50
2023-02-28T15:48:38.967Z,0.20
2023-02-28T15:53:43.340Z,0.73
2023-02-28T15:58:45.336Z,0.68
2023-02-28T16:03:50.831Z,0.90
2023-02-28T16:08:52.550Z,0.17
2023-02-28T16:13:54.286Z,0.20
2023-02-28T16:18:56.088Z,0.47
2023-02-28T16:23:57.610Z,0.20
2023-02-28T16:28:59.105Z,0.35
2023-02-28T16:34:00.595Z,2.85
2023-02-28T16:39:03.821Z,1.00
2023-02-28T16:44:09.519Z,0.40
2023-02-28T16:49:12.718Z,0.20
2023-02-28T16:54:14.355Z,0.10
2023-02-28T16:59:18.990Z,0.95
2023-02-28T17:04:20.768Z,0.20
2023-02-28T17:09:28.381Z,0.93
2023-02-28T17:14:32.387Z,1.85
2023-02-28T17:19:35.032Z,0.30
2023-02-28T17:24:36.840Z,0.35
2023-02-28T17:29:38.340Z,0.63
2023-02-28T17:34:39.883Z,0.70
2023-02-28T17:39:41.378Z,0.70
2023-02-28T17:44:42.836Z,0.85
2023-02-28T17:49:44.938Z,2.53
2023-02-28T17:54:46.386Z,0.70
2023-02-28T17:59:48.231Z,0.47
2023-02-28T18:04:49.778Z,0.30
2023-02-28T18:09:51.301Z,0.25
2023-02-28T18:14:52.809Z,0.30
2023-02-28T18:19:54.348Z,0.88
2023-02-28T18:24:55.843Z,0.60
2023-02-28T18:29:57.335Z,0.95
2023-02-28T18:34:58.817Z,0.82
2023-02-28T18:40:00.243Z,1.95
2023-02-28T18:45:01.764Z,0.45
2023-02-28T18:50:03.419Z,0.65
2023-02-28T18:55:05.447Z,0.20
2023-02-28T19:00:09.033Z,0.47
2023-02-28T19:05:12.290Z,0.40
2023-02-28T19:10:13.898Z,0.75
2023-02-28T19:15:15.588Z,0.32
2023-02-28T19:20:17.404Z,0.60
2023-02-28T19:25:19.615Z,1.52
2023-02-28T19:30:21.691Z,3.45
2023-02-28T19:35:23.138Z,1.42
2023-02-28T19:40:24.671Z,8.98
2023-02-28T19:45:26.248Z,5.05
2023-02-28T19:50:27.835Z,6.00
2023-02-28T19:55:29.276Z,7.22
2023-02-28T20:00:30.922Z,6.07
2023-02-28T20:05:32.383Z,4.88
2023-02-28T20:10:34.676Z,3.05
2023-02-28T20:15:37.501Z,4.90
2023-02-28T20:20:41.934Z,1.27
2023-02-28T20:25:43.405Z,2.90
2023-02-28T20:30:48.599Z,1.15
2023-02-28T20:35:52.968Z,2.28
2023-02-28T20:40:55.350Z,4.63
2023-02-28T20:46:03.134Z,1.02
2023-02-28T20:51:05.293Z,1.50
2023-02-28T20:56:09.015Z,1.77
2023-02-28T21:01:25.780Z,0.90
2023-02-28T21:06:29.128Z,1.80
2023-02-28T21:11:32.076Z,1.75
2023-02-28T21:16:36.559Z,2.88
2023-02-28T21:21:43.106Z,0.75
2023-02-28T21:26:45.327Z,2.63
2023-02-28T21:31:46.789Z,0.95
2023-02-28T21:36:48.491Z,1.08
2023-02-28T21:41:50.073Z,1.92
2023-02-28T21:46:55.057Z,4.65
2023-02-28T21:51:56.922Z,2.03
2023-02-28T21:57:00.167Z,0.60
2023-02-28T22:02:02.253Z,1.58
2023-02-28T22:07:04.055Z,1.35
2023-02-28T22:12:08.459Z,0.93
2023-02-28T22:17:10.041Z,0.52
2023-02-28T22:22:11.534Z,1.35
2023-02-28T22:27:12.997Z,0.98
2023-02-28T22:32:15.381Z,0.57
2023-02-28T22:37:17.033Z,1.00
2023-02-28T22:42:18.507Z,1.35
2023-02-28T22:47:20.028Z,0.75
2023-02-28T22:52:21.490Z,0.85
2023-02-28T22:57:23.337Z,1.00
2023-02-28T23:02:24.902Z,1.67
2023-02-28T23:07:26.369Z,0.65
2023-02-28T23:12:28.945Z,4.00
2023-02-28T23:17:33.141Z,0.70
2023-02-28T23:22:34.670Z,1.23
2023-02-28T23:27:36.106Z,0.70
2023-02-28T23:32:38.610Z,0.50
2023-02-28T23:37:40.245Z,1.75
2023-02-28T23:42:41.762Z,1.35
2023-02-28T23:47:43.208Z,4.72
2023-02-28T23:52:44.811Z,4.85
2023-02-28T23:57:46.908Z,3.83
